Childress Municipal Airport
KCDS : now visible

Aeroporto :











RITROVATECI SU...

 
LOGIN :

Iscrizione | Disclaimer

   EN    FR    IT 

 









Sommario :    VFR   VFR Marginale   IFR   IFR Intensivo   IFR Molto Intensivo
Visibilità : 
Base nubi : 
>= 8 km
>= 3000ft
5 / 8 km
1000 / 3000 ft
1500m / 5 km
500 / 1000 ft
800 / 1500m
200 / 500 ft
< 800m
< 200 ft
Simboli :   Temporali  Nebbia  Neve Forte  Precipitazioni Forti  Vento > 20 kt






- Altitudine del aeroporto : 1954 ft


KCDS - Childress Municipal

ULTIMO METAR :
  • 312053Z AUTO 16012KT 10SM CLR 29/11 A3013 RMK AO2 SLP178 T02940111 56018

METARs OBSOLETI :
  • 311953Z AUTO 13007G17KT 10SM CLR 29/12 A3014 RMK AO2 SLP182 T02890122
  • 311853Z AUTO 14011G16KT 10SM CLR 28/12 A3016 RMK AO2 SLP191 T02830122
  • 311753Z AUTO 18007G16KT 150V210 10SM CLR 27/13 A3018 RMK AO2 SLP197 T02720133 10278 20156 58013

TAF KCDS
Valido dal 31 a 18 ore il 01 a 18 ore UTC


311735Z 3118/0118 16011KT P6SM SCT250
FIR KZFW / America del Nord



MetMap, La meteo Aeronautica in un colpo d'occhio ! - Copyright ORBIFLY Dicembre 2007 - Disclaimer

ORBIFLY MET'MAP TEAM :

Programmazione e sviluppo : Alexandra Zaïnal
Concezione : Baudouin d'Aumeries
Aiuto per la programmazione : Marc-Olivier Méhu
Supporto tecnico e logistico : Manuel Goepfert
Aiuto per la traduzione : Arnaldo La Scala

Contatto : metmap@orbifly.com




FONTI E CREDITI :

   NOAA       Earth
Advisory